sensor_id;sensor_type;location;lat;lon;timestamp;P1;durP1;ratioP1;P2;durP2;ratioP2
77280;SDS011;66339;47.262;17.144;2023-12-20T00:01:25;11.18;;;9.32;;
77280;SDS011;66339;47.262;17.144;2023-12-20T00:03:56;10.63;;;9.20;;
77280;SDS011;66339;47.262;17.144;2023-12-20T00:06:29;11.43;;;8.90;;
77280;SDS011;66339;47.262;17.144;2023-12-20T00:09:08;13.00;;;9.75;;
77280;SDS011;66339;47.262;17.144;2023-12-20T00:11:41;12.20;;;9.15;;
77280;SDS011;66339;47.262;17.144;2023-12-20T00:14:20;12.18;;;9.38;;
77280;SDS011;66339;47.262;17.144;2023-12-20T00:16:52;11.68;;;8.85;;
77280;SDS011;66339;47.262;17.144;2023-12-20T00:19:22;11.63;;;9.65;;
77280;SDS011;66339;47.262;17.144;2023-12-20T00:21:52;11.10;;;8.95;;
77280;SDS011;66339;47.262;17.144;2023-12-20T00:24:22;11.77;;;9.10;;
77280;SDS011;66339;47.262;17.144;2023-12-20T00:26:55;12.25;;;9.05;;
77280;SDS011;66339;47.262;17.144;2023-12-20T00:29:25;11.93;;;9.23;;
77280;SDS011;66339;47.262;17.144;2023-12-20T00:31:55;12.05;;;8.82;;
77280;SDS011;66339;47.262;17.144;2023-12-20T00:34:33;12.88;;;9.40;;
77280;SDS011;66339;47.262;17.144;2023-12-20T00:37:09;11.30;;;8.70;;
77280;SDS011;66339;47.262;17.144;2023-12-20T00:39:36;11.50;;;9.10;;
77280;SDS011;66339;47.262;17.144;2023-12-20T00:42:09;12.18;;;9.32;;
77280;SDS011;66339;47.262;17.144;2023-12-20T00:44:39;10.98;;;8.68;;
77280;SDS011;66339;47.262;17.144;2023-12-20T00:47:12;12.55;;;9.27;;
77280;SDS011;66339;47.262;17.144;2023-12-20T00:49:42;10.40;;;8.40;;
77280;SDS011;66339;47.262;17.144;2023-12-20T00:52:12;11.57;;;8.80;;
77280;SDS011;66339;47.262;17.144;2023-12-20T00:54:50;12.18;;;8.85;;
77280;SDS011;66339;47.262;17.144;2023-12-20T00:59:52;11.18;;;8.95;;
77280;SDS011;66339;47.262;17.144;2023-12-20T01:05:01;11.27;;;9.07;;
77280;SDS011;66339;47.262;17.144;2023-12-20T01:07:34;9.32;;;8.13;;
77280;SDS011;66339;47.262;17.144;2023-12-20T01:10:05;9.73;;;8.32;;
77280;SDS011;66339;47.262;17.144;2023-12-20T01:12:35;10.25;;;8.73;;
77280;SDS011;66339;47.262;17.144;2023-12-20T01:15:08;10.60;;;8.68;;
77280;SDS011;66339;47.262;17.144;2023-12-20T01:17:35;15.23;;;8.95;;
77280;SDS011;66339;47.262;17.144;2023-12-20T01:20:06;12.95;;;9.35;;
77280;SDS011;66339;47.262;17.144;2023-12-20T01:22:37;10.95;;;8.65;;
77280;SDS011;66339;47.262;17.144;2023-12-20T01:25:07;9.38;;;8.30;;
77280;SDS011;66339;47.262;17.144;2023-12-20T01:27:34;10.13;;;8.35;;
77280;SDS011;66339;47.262;17.144;2023-12-20T01:30:08;10.40;;;8.38;;
77280;SDS011;66339;47.262;17.144;2023-12-20T01:32:38;10.63;;;8.73;;
77280;SDS011;66339;47.262;17.144;2023-12-20T01:35:12;10.07;;;8.60;;
77280;SDS011;66339;47.262;17.144;2023-12-20T01:37:42;10.57;;;8.73;;
77280;SDS011;66339;47.262;17.144;2023-12-20T01:40:19;9.90;;;8.07;;
77280;SDS011;66339;47.262;17.144;2023-12-20T01:42:59;9.45;;;8.18;;
77280;SDS011;66339;47.262;17.144;2023-12-20T01:45:33;9.88;;;8.27;;
77280;SDS011;66339;47.262;17.144;2023-12-20T01:48:06;10.73;;;8.32;;
77280;SDS011;66339;47.262;17.144;2023-12-20T01:50:37;9.50;;;8.30;;
77280;SDS011;66339;47.262;17.144;2023-12-20T01:53:05;9.98;;;8.68;;
77280;SDS011;66339;47.262;17.144;2023-12-20T01:55:41;10.43;;;8.05;;
77280;SDS011;66339;47.262;17.144;2023-12-20T01:58:12;10.55;;;8.63;;
77280;SDS011;66339;47.262;17.144;2023-12-20T02:00:40;9.50;;;8.20;;
77280;SDS011;66339;47.262;17.144;2023-12-20T02:03:10;9.52;;;8.13;;
77280;SDS011;66339;47.262;17.144;2023-12-20T02:05:44;9.13;;;8.13;;
77280;SDS011;66339;47.262;17.144;2023-12-20T02:08:17;9.82;;;7.70;;
77280;SDS011;66339;47.262;17.144;2023-12-20T02:10:45;10.15;;;8.15;;
77280;SDS011;66339;47.262;17.144;2023-12-20T02:13:16;9.63;;;8.23;;
77280;SDS011;66339;47.262;17.144;2023-12-20T02:15:49;9.27;;;7.97;;
77280;SDS011;66339;47.262;17.144;2023-12-20T02:18:21;8.80;;;7.70;;
77280;SDS011;66339;47.262;17.144;2023-12-20T02:20:52;10.52;;;8.32;;
77280;SDS011;66339;47.262;17.144;2023-12-20T02:23:19;10.43;;;8.38;;
77280;SDS011;66339;47.262;17.144;2023-12-20T02:25:49;8.93;;;7.78;;
77280;SDS011;66339;47.262;17.144;2023-12-20T02:28:23;11.38;;;8.05;;
77280;SDS011;66339;47.262;17.144;2023-12-20T02:30:53;9.88;;;8.40;;
77280;SDS011;66339;47.262;17.144;2023-12-20T02:33:21;11.05;;;8.82;;
77280;SDS011;66339;47.262;17.144;2023-12-20T02:35:47;10.23;;;8.25;;
77280;SDS011;66339;47.262;17.144;2023-12-20T02:38:15;9.48;;;8.40;;
77280;SDS011;66339;47.262;17.144;2023-12-20T02:40:45;10.38;;;8.52;;
77280;SDS011;66339;47.262;17.144;2023-12-20T02:43:18;9.57;;;8.35;;
77280;SDS011;66339;47.262;17.144;2023-12-20T02:45:45;9.73;;;8.00;;
77280;SDS011;66339;47.262;17.144;2023-12-20T02:48:18;9.27;;;7.93;;
77280;SDS011;66339;47.262;17.144;2023-12-20T02:50:46;9.57;;;8.52;;
77280;SDS011;66339;47.262;17.144;2023-12-20T02:53:16;9.55;;;8.32;;
77280;SDS011;66339;47.262;17.144;2023-12-20T02:55:43;10.45;;;7.90;;
77280;SDS011;66339;47.262;17.144;2023-12-20T02:58:11;10.13;;;8.18;;
77280;SDS011;66339;47.262;17.144;2023-12-20T03:00:41;9.05;;;8.05;;
77280;SDS011;66339;47.262;17.144;2023-12-20T03:03:11;10.13;;;8.27;;
77280;SDS011;66339;47.262;17.144;2023-12-20T03:05:45;8.85;;;7.35;;
77280;SDS011;66339;47.262;17.144;2023-12-20T03:08:22;9.75;;;7.90;;
77280;SDS011;66339;47.262;17.144;2023-12-20T03:10:56;9.85;;;7.90;;
77280;SDS011;66339;47.262;17.144;2023-12-20T03:13:23;9.95;;;8.13;;
77280;SDS011;66339;47.262;17.144;2023-12-20T03:15:53;9.85;;;8.13;;
77280;SDS011;66339;47.262;17.144;2023-12-20T03:18:21;9.85;;;7.82;;
77280;SDS011;66339;47.262;17.144;2023-12-20T03:20:51;8.70;;;7.37;;
77280;SDS011;66339;47.262;17.144;2023-12-20T03:23:24;11.60;;;8.88;;
77280;SDS011;66339;47.262;17.144;2023-12-20T03:25:58;9.13;;;7.47;;
77280;SDS011;66339;47.262;17.144;2023-12-20T03:28:31;9.15;;;8.05;;
77280;SDS011;66339;47.262;17.144;2023-12-20T03:30:58;10.85;;;8.02;;
77280;SDS011;66339;47.262;17.144;2023-12-20T03:33:29;9.38;;;7.40;;
77280;SDS011;66339;47.262;17.144;2023-12-20T03:36:06;9.20;;;7.90;;
77280;SDS011;66339;47.262;17.144;2023-12-20T03:38:36;8.90;;;7.65;;
77280;SDS011;66339;47.262;17.144;2023-12-20T03:41:04;9.55;;;7.82;;
77280;SDS011;66339;47.262;17.144;2023-12-20T03:43:39;8.70;;;7.40;;
77280;SDS011;66339;47.262;17.144;2023-12-20T03:46:09;9.38;;;7.97;;
77280;SDS011;66339;47.262;17.144;2023-12-20T03:48:36;8.90;;;7.43;;
77280;SDS011;66339;47.262;17.144;2023-12-20T03:51:08;9.25;;;7.62;;
77280;SDS011;66339;47.262;17.144;2023-12-20T03:53:37;10.05;;;7.93;;
77280;SDS011;66339;47.262;17.144;2023-12-20T03:56:07;9.15;;;8.10;;
77280;SDS011;66339;47.262;17.144;2023-12-20T03:58:38;9.25;;;7.72;;
77280;SDS011;66339;47.262;17.144;2023-12-20T04:01:08;8.07;;;7.18;;
77280;SDS011;66339;47.262;17.144;2023-12-20T04:03:36;9.63;;;7.97;;
77280;SDS011;66339;47.262;17.144;2023-12-20T04:06:07;9.10;;;7.60;;
77280;SDS011;66339;47.262;17.144;2023-12-20T04:08:34;8.82;;;7.87;;
77280;SDS011;66339;47.262;17.144;2023-12-20T04:11:07;10.65;;;8.10;;
77280;SDS011;66339;47.262;17.144;2023-12-20T04:13:34;8.32;;;7.28;;
77280;SDS011;66339;47.262;17.144;2023-12-20T04:16:11;8.25;;;7.30;;
77280;SDS011;66339;47.262;17.144;2023-12-20T04:18:41;8.93;;;7.32;;
77280;SDS011;66339;47.262;17.144;2023-12-20T04:21:17;9.40;;;7.68;;
77280;SDS011;66339;47.262;17.144;2023-12-20T04:23:44;8.52;;;7.37;;
77280;SDS011;66339;47.262;17.144;2023-12-20T04:26:14;9.35;;;7.90;;
77280;SDS011;66339;47.262;17.144;2023-12-20T04:28:47;8.48;;;7.45;;
77280;SDS011;66339;47.262;17.144;2023-12-20T04:31:26;9.38;;;7.80;;
77280;SDS011;66339;47.262;17.144;2023-12-20T04:33:57;10.18;;;7.70;;
77280;SDS011;66339;47.262;17.144;2023-12-20T04:36:23;9.48;;;7.40;;
77280;SDS011;66339;47.262;17.144;2023-12-20T04:38:52;7.90;;;7.00;;
77280;SDS011;66339;47.262;17.144;2023-12-20T04:41:20;8.68;;;7.50;;
77280;SDS011;66339;47.262;17.144;2023-12-20T04:43:47;8.45;;;7.30;;
77280;SDS011;66339;47.262;17.144;2023-12-20T04:46:18;8.40;;;6.87;;
77280;SDS011;66339;47.262;17.144;2023-12-20T04:48:49;9.02;;;7.20;;
77280;SDS011;66339;47.262;17.144;2023-12-20T04:51:22;9.27;;;7.40;;
77280;SDS011;66339;47.262;17.144;2023-12-20T04:53:52;8.63;;;7.32;;
77280;SDS011;66339;47.262;17.144;2023-12-20T04:56:22;8.50;;;7.30;;
77280;SDS011;66339;47.262;17.144;2023-12-20T04:58:52;9.10;;;7.35;;
77280;SDS011;66339;47.262;17.144;2023-12-20T05:03:50;8.23;;;7.10;;
77280;SDS011;66339;47.262;17.144;2023-12-20T05:06:17;13.90;;;6.95;;
77280;SDS011;66339;47.262;17.144;2023-12-20T05:08:44;10.13;;;6.70;;
77280;SDS011;66339;47.262;17.144;2023-12-20T05:11:14;7.37;;;6.53;;
77280;SDS011;66339;47.262;17.144;2023-12-20T05:13:41;8.38;;;6.97;;
77280;SDS011;66339;47.262;17.144;2023-12-20T05:16:15;11.60;;;7.32;;
77280;SDS011;66339;47.262;17.144;2023-12-20T05:18:46;8.07;;;6.47;;
77280;SDS011;66339;47.262;17.144;2023-12-20T05:21:19;8.63;;;7.05;;
77280;SDS011;66339;47.262;17.144;2023-12-20T05:23:52;8.07;;;6.72;;
77280;SDS011;66339;47.262;17.144;2023-12-20T05:26:22;12.73;;;6.97;;
77280;SDS011;66339;47.262;17.144;2023-12-20T05:28:57;9.63;;;6.78;;
77280;SDS011;66339;47.262;17.144;2023-12-20T05:31:31;9.50;;;7.00;;
77280;SDS011;66339;47.262;17.144;2023-12-20T05:33:58;9.65;;;6.70;;
77280;SDS011;66339;47.262;17.144;2023-12-20T05:36:27;8.23;;;7.07;;
77280;SDS011;66339;47.262;17.144;2023-12-20T05:39:06;8.50;;;7.25;;
77280;SDS011;66339;47.262;17.144;2023-12-20T05:41:36;9.70;;;6.75;;
77280;SDS011;66339;47.262;17.144;2023-12-20T05:44:06;8.60;;;6.72;;
77280;SDS011;66339;47.262;17.144;2023-12-20T05:46:39;10.63;;;7.50;;
77280;SDS011;66339;47.262;17.144;2023-12-20T05:49:06;10.60;;;7.47;;
77280;SDS011;66339;47.262;17.144;2023-12-20T05:51:33;8.40;;;6.87;;
77280;SDS011;66339;47.262;17.144;2023-12-20T05:54:00;9.13;;;7.28;;
77280;SDS011;66339;47.262;17.144;2023-12-20T05:56:30;8.82;;;7.47;;
77280;SDS011;66339;47.262;17.144;2023-12-20T05:59:06;9.65;;;7.55;;
77280;SDS011;66339;47.262;17.144;2023-12-20T06:01:36;9.38;;;7.68;;
77280;SDS011;66339;47.262;17.144;2023-12-20T06:04:03;9.43;;;7.87;;
77280;SDS011;66339;47.262;17.144;2023-12-20T06:06:32;10.82;;;8.02;;
77280;SDS011;66339;47.262;17.144;2023-12-20T06:08:59;10.32;;;7.93;;
77280;SDS011;66339;47.262;17.144;2023-12-20T06:11:29;10.50;;;7.60;;
77280;SDS011;66339;47.262;17.144;2023-12-20T06:13:56;10.32;;;8.15;;
77280;SDS011;66339;47.262;17.144;2023-12-20T06:16:26;9.32;;;7.60;;
77280;SDS011;66339;47.262;17.144;2023-12-20T06:19:00;11.82;;;7.85;;
77280;SDS011;66339;47.262;17.144;2023-12-20T06:21:30;10.35;;;7.62;;
77280;SDS011;66339;47.262;17.144;2023-12-20T06:23:58;8.73;;;7.20;;
77280;SDS011;66339;47.262;17.144;2023-12-20T06:26:31;12.57;;;7.93;;
77280;SDS011;66339;47.262;17.144;2023-12-20T06:29:02;9.73;;;7.65;;
77280;SDS011;66339;47.262;17.144;2023-12-20T06:31:31;10.13;;;7.43;;
77280;SDS011;66339;47.262;17.144;2023-12-20T06:34:01;10.93;;;7.87;;
77280;SDS011;66339;47.262;17.144;2023-12-20T06:36:28;10.63;;;8.07;;
77280;SDS011;66339;47.262;17.144;2023-12-20T06:38:58;8.63;;;7.57;;
77280;SDS011;66339;47.262;17.144;2023-12-20T06:41:25;10.05;;;7.47;;
77280;SDS011;66339;47.262;17.144;2023-12-20T06:43:55;9.60;;;8.00;;
77280;SDS011;66339;47.262;17.144;2023-12-20T06:46:26;9.35;;;7.78;;
77280;SDS011;66339;47.262;17.144;2023-12-20T06:48:54;9.07;;;7.62;;
77280;SDS011;66339;47.262;17.144;2023-12-20T06:51:21;10.57;;;7.72;;
77280;SDS011;66339;47.262;17.144;2023-12-20T06:53:51;8.13;;;7.10;;
77280;SDS011;66339;47.262;17.144;2023-12-20T06:56:19;8.95;;;7.95;;
77280;SDS011;66339;47.262;17.144;2023-12-20T06:58:45;9.52;;;7.95;;
77280;SDS011;66339;47.262;17.144;2023-12-20T07:01:16;8.82;;;7.55;;
77280;SDS011;66339;47.262;17.144;2023-12-20T07:03:48;10.13;;;8.00;;
77280;SDS011;66339;47.262;17.144;2023-12-20T07:06:15;9.65;;;8.18;;
77280;SDS011;66339;47.262;17.144;2023-12-20T07:08:45;10.45;;;8.55;;
77280;SDS011;66339;47.262;17.144;2023-12-20T07:11:15;10.50;;;8.15;;
77280;SDS011;66339;47.262;17.144;2023-12-20T07:13:45;10.05;;;7.47;;
77280;SDS011;66339;47.262;17.144;2023-12-20T07:16:16;10.75;;;7.93;;
77280;SDS011;66339;47.262;17.144;2023-12-20T07:18:49;9.20;;;7.87;;
77280;SDS011;66339;47.262;17.144;2023-12-20T07:21:16;9.50;;;7.97;;
77280;SDS011;66339;47.262;17.144;2023-12-20T07:23:49;8.73;;;7.25;;
77280;SDS011;66339;47.262;17.144;2023-12-20T07:26:15;10.43;;;7.60;;
77280;SDS011;66339;47.262;17.144;2023-12-20T07:28:43;10.18;;;8.00;;
77280;SDS011;66339;47.262;17.144;2023-12-20T07:31:19;9.77;;;7.80;;
77280;SDS011;66339;47.262;17.144;2023-12-20T07:33:52;10.85;;;8.50;;
77280;SDS011;66339;47.262;17.144;2023-12-20T07:36:22;9.80;;;8.25;;
77280;SDS011;66339;47.262;17.144;2023-12-20T07:38:52;9.98;;;8.02;;
77280;SDS011;66339;47.262;17.144;2023-12-20T07:41:19;10.45;;;8.45;;
77280;SDS011;66339;47.262;17.144;2023-12-20T07:43:49;11.50;;;8.02;;
77280;SDS011;66339;47.262;17.144;2023-12-20T07:46:16;9.35;;;7.87;;
77280;SDS011;66339;47.262;17.144;2023-12-20T07:51:23;11.65;;;8.18;;
77280;SDS011;66339;47.262;17.144;2023-12-20T07:53:52;13.40;;;7.97;;
77280;SDS011;66339;47.262;17.144;2023-12-20T07:56:25;16.00;;;7.55;;
77280;SDS011;66339;47.262;17.144;2023-12-20T07:58:52;14.90;;;7.47;;
77280;SDS011;66339;47.262;17.144;2023-12-20T08:01:20;13.07;;;8.07;;
77280;SDS011;66339;47.262;17.144;2023-12-20T08:03:48;11.90;;;8.30;;
77280;SDS011;66339;47.262;17.144;2023-12-20T08:06:16;10.60;;;7.53;;
77280;SDS011;66339;47.262;17.144;2023-12-20T08:08:44;13.60;;;8.20;;
77280;SDS011;66339;47.262;17.144;2023-12-20T08:11:18;25.45;;;16.40;;
77280;SDS011;66339;47.262;17.144;2023-12-20T08:13:45;21.25;;;16.12;;
77280;SDS011;66339;47.262;17.144;2023-12-20T08:16:21;26.60;;;14.32;;
77280;SDS011;66339;47.262;17.144;2023-12-20T08:18:51;18.42;;;12.23;;
77280;SDS011;66339;47.262;17.144;2023-12-20T08:21:18;17.10;;;10.35;;
77280;SDS011;66339;47.262;17.144;2023-12-20T08:23:46;18.40;;;10.38;;
77280;SDS011;66339;47.262;17.144;2023-12-20T08:26:13;20.05;;;9.38;;
77280;SDS011;66339;47.262;17.144;2023-12-20T08:28:45;14.97;;;9.17;;
77280;SDS011;66339;47.262;17.144;2023-12-20T08:31:18;13.38;;;8.70;;
77280;SDS011;66339;47.262;17.144;2023-12-20T08:33:46;10.50;;;8.20;;
77280;SDS011;66339;47.262;17.144;2023-12-20T08:36:14;17.83;;;9.32;;
77280;SDS011;66339;47.262;17.144;2023-12-20T08:38:45;16.73;;;10.02;;
77280;SDS011;66339;47.262;17.144;2023-12-20T08:41:15;17.42;;;9.23;;
77280;SDS011;66339;47.262;17.144;2023-12-20T08:43:43;12.95;;;8.65;;
77280;SDS011;66339;47.262;17.144;2023-12-20T08:46:10;14.82;;;9.25;;
77280;SDS011;66339;47.262;17.144;2023-12-20T08:48:37;15.93;;;8.50;;
77280;SDS011;66339;47.262;17.144;2023-12-20T08:51:08;15.77;;;8.93;;
77280;SDS011;66339;47.262;17.144;2023-12-20T08:53:36;15.23;;;8.57;;
77280;SDS011;66339;47.262;17.144;2023-12-20T08:56:05;11.40;;;8.10;;
77280;SDS011;66339;47.262;17.144;2023-12-20T08:58:32;14.02;;;8.50;;
77280;SDS011;66339;47.262;17.144;2023-12-20T09:01:04;11.57;;;8.15;;
77280;SDS011;66339;47.262;17.144;2023-12-20T09:03:32;13.73;;;8.07;;
77280;SDS011;66339;47.262;17.144;2023-12-20T09:05:59;11.88;;;7.93;;
77280;SDS011;66339;47.262;17.144;2023-12-20T09:08:26;11.35;;;8.23;;
77280;SDS011;66339;47.262;17.144;2023-12-20T09:10:56;10.77;;;8.18;;
77280;SDS011;66339;47.262;17.144;2023-12-20T09:13:23;12.43;;;8.43;;
77280;SDS011;66339;47.262;17.144;2023-12-20T09:15:50;10.43;;;8.07;;
77280;SDS011;66339;47.262;17.144;2023-12-20T09:18:20;9.55;;;7.97;;
77280;SDS011;66339;47.262;17.144;2023-12-20T09:20:54;11.85;;;8.40;;
77280;SDS011;66339;47.262;17.144;2023-12-20T09:23:24;13.77;;;7.60;;
77280;SDS011;66339;47.262;17.144;2023-12-20T09:25:57;16.35;;;7.80;;
77280;SDS011;66339;47.262;17.144;2023-12-20T09:28:24;11.50;;;8.15;;
77280;SDS011;66339;47.262;17.144;2023-12-20T09:30:56;13.32;;;8.60;;
77280;SDS011;66339;47.262;17.144;2023-12-20T09:33:26;10.65;;;7.93;;
77280;SDS011;66339;47.262;17.144;2023-12-20T09:35:53;10.50;;;7.82;;
77280;SDS011;66339;47.262;17.144;2023-12-20T09:38:24;10.23;;;8.20;;
77280;SDS011;66339;47.262;17.144;2023-12-20T09:40:53;9.32;;;7.15;;
77280;SDS011;66339;47.262;17.144;2023-12-20T09:43:20;10.60;;;8.20;;
77280;SDS011;66339;47.262;17.144;2023-12-20T09:45:54;10.15;;;7.60;;
77280;SDS011;66339;47.262;17.144;2023-12-20T09:48:24;12.77;;;7.80;;
77280;SDS011;66339;47.262;17.144;2023-12-20T09:50:54;14.38;;;8.13;;
77280;SDS011;66339;47.262;17.144;2023-12-20T09:53:22;10.25;;;8.25;;
77280;SDS011;66339;47.262;17.144;2023-12-20T09:55:52;10.45;;;7.72;;
77280;SDS011;66339;47.262;17.144;2023-12-20T10:01:29;10.82;;;8.07;;
77280;SDS011;66339;47.262;17.144;2023-12-20T10:03:57;9.52;;;7.93;;
77280;SDS011;66339;47.262;17.144;2023-12-20T10:06:26;10.15;;;7.55;;
77280;SDS011;66339;47.262;17.144;2023-12-20T10:08:53;11.45;;;7.70;;
77280;SDS011;66339;47.262;17.144;2023-12-20T10:11:20;9.25;;;7.35;;
77280;SDS011;66339;47.262;17.144;2023-12-20T10:13:58;10.13;;;7.57;;
77280;SDS011;66339;47.262;17.144;2023-12-20T10:16:26;10.40;;;7.72;;
77280;SDS011;66339;47.262;17.144;2023-12-20T10:18:54;10.88;;;7.95;;
77280;SDS011;66339;47.262;17.144;2023-12-20T10:21:27;11.32;;;7.80;;
77280;SDS011;66339;47.262;17.144;2023-12-20T10:26:22;11.07;;;7.68;;
77280;SDS011;66339;47.262;17.144;2023-12-20T10:28:56;10.32;;;7.87;;
77280;SDS011;66339;47.262;17.144;2023-12-20T10:31:27;8.60;;;7.55;;
77280;SDS011;66339;47.262;17.144;2023-12-20T10:33:58;9.48;;;7.75;;
77280;SDS011;66339;47.262;17.144;2023-12-20T10:36:26;10.25;;;7.37;;
77280;SDS011;66339;47.262;17.144;2023-12-20T10:38:58;10.18;;;7.07;;
77280;SDS011;66339;47.262;17.144;2023-12-20T10:41:29;9.65;;;7.53;;
77280;SDS011;66339;47.262;17.144;2023-12-20T10:44:03;9.30;;;7.12;;
77280;SDS011;66339;47.262;17.144;2023-12-20T10:46:34;9.63;;;7.00;;
77280;SDS011;66339;47.262;17.144;2023-12-20T10:49:04;9.10;;;7.45;;
77280;SDS011;66339;47.262;17.144;2023-12-20T10:51:31;8.63;;;7.10;;
77280;SDS011;66339;47.262;17.144;2023-12-20T10:54:00;10.07;;;7.53;;
77280;SDS011;66339;47.262;17.144;2023-12-20T10:56:27;9.15;;;7.10;;
77280;SDS011;66339;47.262;17.144;2023-12-20T10:58:58;10.85;;;7.95;;
77280;SDS011;66339;47.262;17.144;2023-12-20T11:01:28;9.85;;;7.93;;
77280;SDS011;66339;47.262;17.144;2023-12-20T11:03:56;8.38;;;7.15;;
77280;SDS011;66339;47.262;17.144;2023-12-20T11:12:13;9.70;;;7.72;;
77280;SDS011;66339;47.262;17.144;2023-12-20T11:14:48;10.48;;;8.10;;
77280;SDS011;66339;47.262;17.144;2023-12-20T11:17:20;10.13;;;7.93;;
77280;SDS011;66339;47.262;17.144;2023-12-20T11:22:24;11.15;;;8.35;;
77280;SDS011;66339;47.262;17.144;2023-12-20T11:24:55;9.73;;;7.45;;
77280;SDS011;66339;47.262;17.144;2023-12-20T11:27:25;10.43;;;7.62;;
77280;SDS011;66339;47.262;17.144;2023-12-20T11:29:52;10.45;;;7.93;;
77280;SDS011;66339;47.262;17.144;2023-12-20T11:34:53;8.93;;;7.10;;
77280;SDS011;66339;47.262;17.144;2023-12-20T11:37:22;8.98;;;7.25;;
77280;SDS011;66339;47.262;17.144;2023-12-20T11:39:56;10.70;;;7.45;;
77280;SDS011;66339;47.262;17.144;2023-12-20T11:42:26;9.98;;;7.10;;
77280;SDS011;66339;47.262;17.144;2023-12-20T11:44:53;10.05;;;7.57;;
77280;SDS011;66339;47.262;17.144;2023-12-20T11:47:20;10.00;;;7.50;;
77280;SDS011;66339;47.262;17.144;2023-12-20T11:49:47;10.18;;;7.97;;
77280;SDS011;66339;47.262;17.144;2023-12-20T11:52:17;11.02;;;7.57;;
77280;SDS011;66339;47.262;17.144;2023-12-20T11:54:48;9.23;;;7.80;;
77280;SDS011;66339;47.262;17.144;2023-12-20T11:57:14;8.60;;;7.20;;
77280;SDS011;66339;47.262;17.144;2023-12-20T11:59:42;9.45;;;7.65;;
77280;SDS011;66339;47.262;17.144;2023-12-20T12:02:11;9.52;;;7.53;;
77280;SDS011;66339;47.262;17.144;2023-12-20T12:04:41;10.07;;;7.65;;
77280;SDS011;66339;47.262;17.144;2023-12-20T12:07:08;19.85;;;12.85;;
77280;SDS011;66339;47.262;17.144;2023-12-20T12:09:38;20.77;;;11.95;;
77280;SDS011;66339;47.262;17.144;2023-12-20T12:12:05;16.45;;;8.98;;
77280;SDS011;66339;47.262;17.144;2023-12-20T12:14:35;19.83;;;9.45;;
77280;SDS011;66339;47.262;17.144;2023-12-20T12:17:14;22.58;;;8.02;;
77280;SDS011;66339;47.262;17.144;2023-12-20T12:19:42;18.92;;;8.48;;
77280;SDS011;66339;47.262;17.144;2023-12-20T12:22:14;13.80;;;7.47;;
77280;SDS011;66339;47.262;17.144;2023-12-20T12:24:45;15.77;;;7.87;;
77280;SDS011;66339;47.262;17.144;2023-12-20T12:27:13;14.55;;;8.32;;
77280;SDS011;66339;47.262;17.144;2023-12-20T12:29:40;11.70;;;7.78;;
77280;SDS011;66339;47.262;17.144;2023-12-20T12:32:25;12.95;;;7.32;;
77280;SDS011;66339;47.262;17.144;2023-12-20T12:34:53;12.52;;;8.05;;
77280;SDS011;66339;47.262;17.144;2023-12-20T12:37:20;12.43;;;7.62;;
77280;SDS011;66339;47.262;17.144;2023-12-20T12:39:47;11.98;;;7.97;;
77280;SDS011;66339;47.262;17.144;2023-12-20T12:42:14;12.88;;;7.32;;
77280;SDS011;66339;47.262;17.144;2023-12-20T12:44:44;12.23;;;7.70;;
77280;SDS011;66339;47.262;17.144;2023-12-20T12:47:11;10.43;;;8.05;;
77280;SDS011;66339;47.262;17.144;2023-12-20T12:49:43;14.23;;;7.90;;
77280;SDS011;66339;47.262;17.144;2023-12-20T12:52:25;12.85;;;7.80;;
77280;SDS011;66339;47.262;17.144;2023-12-20T12:54:52;13.23;;;7.80;;
77280;SDS011;66339;47.262;17.144;2023-12-20T12:57:22;13.25;;;7.93;;
77280;SDS011;66339;47.262;17.144;2023-12-20T12:59:56;14.32;;;8.27;;
77280;SDS011;66339;47.262;17.144;2023-12-20T13:02:28;10.63;;;7.50;;
77280;SDS011;66339;47.262;17.144;2023-12-20T13:04:54;9.63;;;7.72;;
77280;SDS011;66339;47.262;17.144;2023-12-20T13:07:24;11.57;;;7.78;;
77280;SDS011;66339;47.262;17.144;2023-12-20T13:09:54;11.68;;;7.87;;
77280;SDS011;66339;47.262;17.144;2023-12-20T13:12:21;13.88;;;8.00;;
77280;SDS011;66339;47.262;17.144;2023-12-20T13:14:48;12.35;;;8.07;;
77280;SDS011;66339;47.262;17.144;2023-12-20T13:17:21;11.65;;;7.90;;
77280;SDS011;66339;47.262;17.144;2023-12-20T13:19:48;15.57;;;8.50;;
77280;SDS011;66339;47.262;17.144;2023-12-20T13:22:18;11.85;;;7.62;;
77280;SDS011;66339;47.262;17.144;2023-12-20T13:24:45;10.80;;;7.47;;
77280;SDS011;66339;47.262;17.144;2023-12-20T13:27:15;12.30;;;7.97;;
77280;SDS011;66339;47.262;17.144;2023-12-20T13:29:42;12.88;;;8.10;;
77280;SDS011;66339;47.262;17.144;2023-12-20T13:32:12;11.02;;;7.65;;
77280;SDS011;66339;47.262;17.144;2023-12-20T13:34:39;10.88;;;7.93;;
77280;SDS011;66339;47.262;17.144;2023-12-20T13:37:06;12.52;;;7.95;;
77280;SDS011;66339;47.262;17.144;2023-12-20T13:39:36;11.88;;;7.95;;
77280;SDS011;66339;47.262;17.144;2023-12-20T13:42:07;12.60;;;8.25;;
77280;SDS011;66339;47.262;17.144;2023-12-20T13:44:37;15.48;;;7.85;;
77280;SDS011;66339;47.262;17.144;2023-12-20T13:47:07;13.27;;;8.10;;
77280;SDS011;66339;47.262;17.144;2023-12-20T13:49:40;10.85;;;7.78;;
77280;SDS011;66339;47.262;17.144;2023-12-20T13:52:07;10.38;;;7.90;;
77280;SDS011;66339;47.262;17.144;2023-12-20T13:54:34;12.27;;;7.75;;
77280;SDS011;66339;47.262;17.144;2023-12-20T13:57:01;12.52;;;7.85;;
77280;SDS011;66339;47.262;17.144;2023-12-20T13:59:47;13.27;;;8.85;;
77280;SDS011;66339;47.262;17.144;2023-12-20T14:02:20;11.80;;;7.60;;
77280;SDS011;66339;47.262;17.144;2023-12-20T14:04:46;11.93;;;7.82;;
77280;SDS011;66339;47.262;17.144;2023-12-20T14:07:19;12.68;;;8.40;;
77280;SDS011;66339;47.262;17.144;2023-12-20T14:09:46;11.05;;;7.93;;
77280;SDS011;66339;47.262;17.144;2023-12-20T14:12:19;10.68;;;8.00;;
77280;SDS011;66339;47.262;17.144;2023-12-20T14:17:19;18.42;;;8.02;;
77280;SDS011;66339;47.262;17.144;2023-12-20T14:19:46;11.10;;;7.55;;
77280;SDS011;66339;47.262;17.144;2023-12-20T14:22:17;10.57;;;7.70;;
77280;SDS011;66339;47.262;17.144;2023-12-20T14:24:47;15.63;;;7.95;;
77280;SDS011;66339;47.262;17.144;2023-12-20T14:27:26;12.37;;;7.65;;
77280;SDS011;66339;47.262;17.144;2023-12-20T14:29:57;12.13;;;8.18;;
77280;SDS011;66339;47.262;17.144;2023-12-20T14:32:24;13.90;;;8.25;;
77280;SDS011;66339;47.262;17.144;2023-12-20T14:34:51;12.18;;;8.00;;
77280;SDS011;66339;47.262;17.144;2023-12-20T14:37:18;22.25;;;7.85;;
77280;SDS011;66339;47.262;17.144;2023-12-20T14:39:48;11.27;;;8.35;;
77280;SDS011;66339;47.262;17.144;2023-12-20T14:42:15;15.95;;;7.85;;
77280;SDS011;66339;47.262;17.144;2023-12-20T14:44:47;10.73;;;8.13;;
77280;SDS011;66339;47.262;17.144;2023-12-20T14:47:14;13.15;;;8.45;;
77280;SDS011;66339;47.262;17.144;2023-12-20T14:49:44;14.52;;;8.13;;
77280;SDS011;66339;47.262;17.144;2023-12-20T14:52:14;16.52;;;8.40;;
77280;SDS011;66339;47.262;17.144;2023-12-20T14:54:44;12.98;;;8.48;;
77280;SDS011;66339;47.262;17.144;2023-12-20T14:57:11;60.53;;;31.42;;
77280;SDS011;66339;47.262;17.144;2023-12-20T14:59:38;65.40;;;37.72;;
77280;SDS011;66339;47.262;17.144;2023-12-20T15:02:12;75.45;;;40.12;;
77280;SDS011;66339;47.262;17.144;2023-12-20T15:04:45;57.38;;;34.20;;
77280;SDS011;66339;47.262;17.144;2023-12-20T15:07:12;46.75;;;27.25;;
77280;SDS011;66339;47.262;17.144;2023-12-20T15:12:13;31.75;;;19.62;;
77280;SDS011;66339;47.262;17.144;2023-12-20T15:14:40;32.17;;;18.23;;